»·PEaware :: N7355A KLAX-KSNA

N7355A :: KLAX-KSNA

FLIGHT INFORMATION

Flight Status: Arrived
Operator: Privately registered:
United States
More flights under this callsign
Pilot: Monte T. (31546)
Aircraft: CESSNA 172 SKYHAWK
(C172)
More flights by this aircraft type
Origin: KLAX Los Angeles Intl
United States
Destination: KSNA John Wayne-Orange Co
United States
More flights between these airports :: More routes between these airports
Route: SLI8 SLI
File this flight plan on PilotEdge
Remarks:
Altitude:
(Current/Filed)
4,000ft
Speed:
(Current/Filed)
120kts
Departed: 30-Nov-20 09:45 AM
Arrived: 30-Nov-20 10:16 AM
Distance/Time
Traveled:
31nm/0:30
Distance/Time
To Go:
Arrived

Flight Plot

Page will automatically refresh every two minutes.

Flight plan parsing failed; only flown route is shown


Map Options




Map Legend


Flown Route
Filed Route
Departure Airport
Arrival Airport
Navaid (VOR, NDB)
Fix

Horizontal Profiles

Position Reports

Time Latitude Longitude Heading Altitude Ground
Speed
30-Nov-20 09:20 33.933634 -118.399303 174 111ft 0kts
30-Nov-20 09:21 33.933634 -118.399303 174 111ft 0kts
30-Nov-20 09:22 33.933634 -118.399303 174 111ft 0kts
30-Nov-20 09:23 33.933634 -118.399303 174 111ft 0kts
30-Nov-20 09:24 33.933634 -118.399303 174 111ft 0kts
30-Nov-20 09:25 33.933634 -118.399303 174 111ft 0kts
30-Nov-20 09:26 33.933634 -118.399303 174 111ft 0kts
30-Nov-20 09:27 33.933634 -118.399303 174 111ft 0kts
30-Nov-20 09:28 33.933634 -118.399303 174 111ft 0kts
30-Nov-20 09:29 33.933634 -118.399303 174 111ft 0kts
30-Nov-20 09:30 33.933634 -118.399303 174 111ft 0kts
30-Nov-20 09:31 33.933634 -118.399303 174 111ft 0kts
30-Nov-20 09:32 33.933634 -118.399303 174 111ft 0kts
30-Nov-20 09:33 33.933634 -118.399303 174 111ft 0kts
30-Nov-20 09:34 33.933634 -118.399303 174 111ft 0kts
30-Nov-20 09:35 33.933634 -118.399303 174 111ft 0kts
30-Nov-20 09:36 33.933634 -118.399303 174 111ft 0kts
30-Nov-20 09:37 33.933634 -118.399303 174 111ft 0kts
30-Nov-20 09:38 33.933634 -118.399303 174 111ft 0kts
30-Nov-20 09:39 33.934638 -118.397441 83 108ft 17kts
30-Nov-20 09:40 33.935440 -118.389486 83 100ft 27kts
30-Nov-20 09:41 33.936494 -118.382848 358 96ft 0kts
30-Nov-20 09:42 33.936494 -118.382848 358 96ft 0kts
30-Nov-20 09:43 33.936494 -118.382848 358 96ft 0kts
30-Nov-20 09:44 33.936563 -118.390747 263 195ft 79kts
30-Nov-20 09:45 33.933340 -118.420214 262 1057ft 98kts
30-Nov-20 09:46 33.919943 -118.447058 212 1862ft 102kts
30-Nov-20 09:47 33.896041 -118.465337 212 2662ft 101kts
30-Nov-20 09:48 33.871883 -118.479695 164 3457ft 97kts
30-Nov-20 09:49 33.847301 -118.464379 151 4003ft 115kts
30-Nov-20 09:50 33.819437 -118.439782 120 4000ft 130kts
30-Nov-20 09:51 33.808684 -118.398615 96 3999ft 130kts
30-Nov-20 09:52 33.803942 -118.355278 97 3999ft 130kts
30-Nov-20 09:53 33.800652 -118.311745 92 3999ft 130kts
30-Nov-20 09:54 33.798446 -118.268106 93 3999ft 130kts
30-Nov-20 09:55 33.795383 -118.224490 91 4000ft 130kts
30-Nov-20 09:56 33.794404 -118.180899 91 3999ft 130kts
30-Nov-20 09:57 33.791347 -118.137209 95 3999ft 130kts
30-Nov-20 09:58 33.787873 -118.093712 95 3999ft 130kts
30-Nov-20 09:59 33.786823 -118.050323 73 4000ft 130kts
30-Nov-20 10:00 33.801314 -118.010227 64 4000ft 130kts
30-Nov-20 10:01 33.817138 -117.970826 64 3999ft 130kts
30-Nov-20 10:02 33.833278 -117.931674 62 4000ft 130kts
30-Nov-20 10:03 33.850187 -117.892941 61 4000ft 130kts
30-Nov-20 10:04 33.867854 -117.854661 60 4000ft 130kts
30-Nov-20 10:05 33.881485 -117.814546 72 4000ft 130kts
30-Nov-20 10:06 33.895969 -117.774360 64 4000ft 130kts
30-Nov-20 10:07 33.911722 -117.734852 64 3999ft 130kts
30-Nov-20 10:08 33.891897 -117.716523 224 3650ft 144kts
30-Nov-20 10:09 33.863950 -117.748620 210 3399ft 134kts
30-Nov-20 10:10 33.831681 -117.769809 207 3399ft 131kts
30-Nov-20 10:11 33.796398 -117.792134 207 2650ft 148kts
30-Nov-20 10:12 33.759926 -117.815345 207 1850ft 148kts
30-Nov-20 10:13 33.723291 -117.838620 207 1048ft 149kts
30-Nov-20 10:14 33.690703 -117.859293 207 286ft 101kts
30-Nov-20 10:15 33.677922 -117.867811 268 60ft 18kts
30-Nov-20 10:16 33.676331 -117.869912 208 60ft 18kts

Navigation Log

Ident Type
Flight plan parsing failed, navigation log unavailable